sensor_id;sensor_type;location;lat;lon;timestamp;pressure;altitude;pressure_sealevel;temperature;humidity
54872;BME280;43914;57.680;11.982;2023-03-20T00:00:01;100257.63;;;6.71;100.00
54872;BME280;43914;57.680;11.982;2023-03-20T00:02:27;100260.27;;;6.71;100.00
54872;BME280;43914;57.680;11.982;2023-03-20T00:04:52;100253.60;;;6.72;100.00
54872;BME280;43914;57.680;11.982;2023-03-20T00:07:18;100251.45;;;6.72;100.00
54872;BME280;43914;57.680;11.982;2023-03-20T00:09:43;100246.64;;;6.69;100.00
54872;BME280;43914;57.680;11.982;2023-03-20T00:12:14;100245.59;;;6.66;100.00
54872;BME280;43914;57.680;11.982;2023-03-20T00:14:42;100241.19;;;6.62;100.00
54872;BME280;43914;57.680;11.982;2023-03-20T00:17:13;100241.44;;;6.58;100.00
54872;BME280;43914;57.680;11.982;2023-03-20T00:19:44;100242.27;;;6.57;100.00
54872;BME280;43914;57.680;11.982;2023-03-20T00:22:09;100236.73;;;6.54;100.00
54872;BME280;43914;57.680;11.982;2023-03-20T00:24:35;100232.11;;;6.54;100.00
54872;BME280;43914;57.680;11.982;2023-03-20T00:27:00;100217.44;;;6.45;100.00
54872;BME280;43914;57.680;11.982;2023-03-20T00:29:28;100218.42;;;6.52;100.00
54872;BME280;43914;57.680;11.982;2023-03-20T00:31:59;100221.16;;;6.50;100.00
54872;BME280;43914;57.680;11.982;2023-03-20T00:34:26;100229.39;;;6.48;100.00
54872;BME280;43914;57.680;11.982;2023-03-20T00:36:56;100227.21;;;6.46;100.00
54872;BME280;43914;57.680;11.982;2023-03-20T00:39:22;100222.92;;;6.44;100.00
54872;BME280;43914;57.680;11.982;2023-03-20T00:41:53;100219.95;;;6.41;100.00
54872;BME280;43914;57.680;11.982;2023-03-20T00:44:21;100221.89;;;6.39;100.00
54872;BME280;43914;57.680;11.982;2023-03-20T00:46:51;100223.69;;;6.36;100.00
54872;BME280;43914;57.680;11.982;2023-03-20T00:49:20;100221.16;;;6.33;100.00
54872;BME280;43914;57.680;11.982;2023-03-20T00:51:47;100224.16;;;6.33;100.00
54872;BME280;43914;57.680;11.982;2023-03-20T00:54:15;100216.08;;;6.30;100.00
54872;BME280;43914;57.680;11.982;2023-03-20T00:57:05;100212.94;;;6.26;100.00
54872;BME280;43914;57.680;11.982;2023-03-20T00:59:35;100207.55;;;6.18;100.00
54872;BME280;43914;57.680;11.982;2023-03-20T01:02:01;100203.19;;;6.12;100.00
54872;BME280;43914;57.680;11.982;2023-03-20T01:04:38;100205.79;;;6.13;100.00
54872;BME280;43914;57.680;11.982;2023-03-20T01:07:05;100202.36;;;6.12;100.00
54872;BME280;43914;57.680;11.982;2023-03-20T01:09:31;100197.39;;;6.12;100.00
54872;BME280;43914;57.680;11.982;2023-03-20T01:11:58;100193.09;;;6.11;100.00
54872;BME280;43914;57.680;11.982;2023-03-20T01:14:25;100194.24;;;6.08;100.00
54872;BME280;43914;57.680;11.982;2023-03-20T01:16:50;100188.98;;;6.05;100.00
54872;BME280;43914;57.680;11.982;2023-03-20T01:19:16;100187.45;;;6.05;100.00
54872;BME280;43914;57.680;11.982;2023-03-20T01:21:41;100181.81;;;6.04;100.00
54872;BME280;43914;57.680;11.982;2023-03-20T01:24:07;100175.00;;;6.00;100.00
54872;BME280;43914;57.680;11.982;2023-03-20T01:26:35;100181.28;;;6.01;100.00
54872;BME280;43914;57.680;11.982;2023-03-20T01:29:03;100178.66;;;6.00;100.00
54872;BME280;43914;57.680;11.982;2023-03-20T01:31:29;100174.48;;;5.99;100.00
54872;BME280;43914;57.680;11.982;2023-03-20T01:33:55;100178.00;;;6.01;100.00
54872;BME280;43914;57.680;11.982;2023-03-20T01:36:22;100174.38;;;6.02;100.00
54872;BME280;43914;57.680;11.982;2023-03-20T01:38:56;100171.48;;;6.04;100.00
54872;BME280;43914;57.680;11.982;2023-03-20T01:41:24;100164.74;;;6.04;100.00
54872;BME280;43914;57.680;11.982;2023-03-20T01:43:50;100164.67;;;6.03;100.00
54872;BME280;43914;57.680;11.982;2023-03-20T01:46:23;100165.60;;;6.04;100.00
54872;BME280;43914;57.680;11.982;2023-03-20T01:53:50;100161.63;;;6.06;100.00
54872;BME280;43914;57.680;11.982;2023-03-20T01:56:19;100155.19;;;6.05;100.00
54872;BME280;43914;57.680;11.982;2023-03-20T01:58:53;100157.67;;;6.07;100.00
54872;BME280;43914;57.680;11.982;2023-03-20T02:01:23;100153.92;;;6.07;100.00
54872;BME280;43914;57.680;11.982;2023-03-20T02:03:49;100149.16;;;6.07;100.00
54872;BME280;43914;57.680;11.982;2023-03-20T02:06:17;100147.25;;;6.06;100.00
54872;BME280;43914;57.680;11.982;2023-03-20T02:08:49;100145.12;;;6.06;100.00
54872;BME280;43914;57.680;11.982;2023-03-20T02:11:18;100144.85;;;6.07;100.00
54872;BME280;43914;57.680;11.982;2023-03-20T02:13:45;100139.38;;;6.07;100.00
54872;BME280;43914;57.680;11.982;2023-03-20T02:16:16;100136.79;;;6.06;100.00
54872;BME280;43914;57.680;11.982;2023-03-20T02:18:47;100133.83;;;6.06;100.00
54872;BME280;43914;57.680;11.982;2023-03-20T02:27:40;100135.70;;;6.01;100.00
54872;BME280;43914;57.680;11.982;2023-03-20T02:30:03;100134.22;;;5.97;100.00
54872;BME280;43914;57.680;11.982;2023-03-20T02:35:52;100127.84;;;5.95;100.00
54872;BME280;43914;57.680;11.982;2023-03-20T02:49:02;100124.92;;;5.92;100.00
54872;BME280;43914;57.680;11.982;2023-03-20T02:54:47;100119.95;;;5.89;100.00
54872;BME280;43914;57.680;11.982;2023-03-20T02:57:00;100114.21;;;5.89;100.00
54872;BME280;43914;57.680;11.982;2023-03-20T02:59:35;100116.08;;;5.92;100.00
54872;BME280;43914;57.680;11.982;2023-03-20T03:02:07;100114.98;;;5.92;100.00
54872;BME280;43914;57.680;11.982;2023-03-20T03:04:38;100111.59;;;5.91;100.00
54872;BME280;43914;57.680;11.982;2023-03-20T03:07:08;100103.93;;;5.90;100.00
54872;BME280;43914;57.680;11.982;2023-03-20T03:09:45;100101.02;;;5.90;100.00
54872;BME280;43914;57.680;11.982;2023-03-20T03:12:39;100097.71;;;5.89;100.00
54872;BME280;43914;57.680;11.982;2023-03-20T03:15:18;100090.52;;;5.87;100.00
54872;BME280;43914;57.680;11.982;2023-03-20T03:17:46;100082.75;;;5.85;100.00
54872;BME280;43914;57.680;11.982;2023-03-20T03:20:19;100083.05;;;5.85;100.00
54872;BME280;43914;57.680;11.982;2023-03-20T03:22:47;100081.11;;;5.85;100.00
54872;BME280;43914;57.680;11.982;2023-03-20T03:25:13;100083.77;;;5.85;100.00
54872;BME280;43914;57.680;11.982;2023-03-20T03:27:44;100079.89;;;5.85;100.00
54872;BME280;43914;57.680;11.982;2023-03-20T03:32:44;100072.98;;;5.85;100.00
54872;BME280;43914;57.680;11.982;2023-03-20T03:35:16;100069.92;;;5.83;100.00
54872;BME280;43914;57.680;11.982;2023-03-20T03:40:59;100062.60;;;5.80;100.00
54872;BME280;43914;57.680;11.982;2023-03-20T03:43:31;100069.60;;;5.81;100.00
54872;BME280;43914;57.680;11.982;2023-03-20T03:46:09;100071.83;;;5.84;100.00
54872;BME280;43914;57.680;11.982;2023-03-20T03:48:46;100070.73;;;5.86;100.00
54872;BME280;43914;57.680;11.982;2023-03-20T03:51:16;100071.32;;;5.85;100.00
54872;BME280;43914;57.680;11.982;2023-03-20T03:53:49;100070.82;;;5.85;100.00
54872;BME280;43914;57.680;11.982;2023-03-20T03:56:19;100068.85;;;5.85;100.00
54872;BME280;43914;57.680;11.982;2023-03-20T03:58:56;100064.71;;;5.85;100.00
54872;BME280;43914;57.680;11.982;2023-03-20T04:01:25;100060.19;;;5.84;100.00
54872;BME280;43914;57.680;11.982;2023-03-20T04:03:56;100063.41;;;5.86;100.00
54872;BME280;43914;57.680;11.982;2023-03-20T04:06:24;100058.41;;;5.88;100.00
54872;BME280;43914;57.680;11.982;2023-03-20T04:08:51;100059.31;;;5.88;100.00
54872;BME280;43914;57.680;11.982;2023-03-20T04:11:19;100064.41;;;5.88;100.00
54872;BME280;43914;57.680;11.982;2023-03-20T04:13:49;100066.45;;;5.87;100.00
54872;BME280;43914;57.680;11.982;2023-03-20T04:16:16;100066.31;;;5.89;100.00
54872;BME280;43914;57.680;11.982;2023-03-20T04:18:42;100057.31;;;5.86;100.00
54872;BME280;43914;57.680;11.982;2023-03-20T04:21:08;100059.10;;;5.91;100.00
54872;BME280;43914;57.680;11.982;2023-03-20T04:23:34;100053.35;;;5.88;100.00
54872;BME280;43914;57.680;11.982;2023-03-20T04:26:00;100050.46;;;5.84;100.00
54872;BME280;43914;57.680;11.982;2023-03-20T04:28:26;100039.58;;;5.82;100.00
54872;BME280;43914;57.680;11.982;2023-03-20T04:30:56;100040.71;;;5.81;100.00
54872;BME280;43914;57.680;11.982;2023-03-20T04:33:22;100038.98;;;5.81;100.00
54872;BME280;43914;57.680;11.982;2023-03-20T04:35:48;100041.34;;;5.80;100.00
54872;BME280;43914;57.680;11.982;2023-03-20T04:38:14;100045.35;;;5.77;100.00
54872;BME280;43914;57.680;11.982;2023-03-20T04:40:39;100043.84;;;5.71;100.00
54872;BME280;43914;57.680;11.982;2023-03-20T04:43:05;100045.94;;;5.73;100.00
54872;BME280;43914;57.680;11.982;2023-03-20T04:45:31;100041.77;;;5.70;100.00
54872;BME280;43914;57.680;11.982;2023-03-20T04:47:56;100041.65;;;5.70;100.00
54872;BME280;43914;57.680;11.982;2023-03-20T04:50:22;100036.99;;;5.69;100.00
54872;BME280;43914;57.680;11.982;2023-03-20T04:52:47;100041.22;;;5.71;100.00
54872;BME280;43914;57.680;11.982;2023-03-20T04:55:13;100039.79;;;5.69;100.00
54872;BME280;43914;57.680;11.982;2023-03-20T04:57:39;100042.73;;;5.69;100.00
54872;BME280;43914;57.680;11.982;2023-03-20T05:00:05;100041.89;;;5.68;100.00
54872;BME280;43914;57.680;11.982;2023-03-20T05:02:31;100041.67;;;5.69;100.00
54872;BME280;43914;57.680;11.982;2023-03-20T05:04:56;100038.83;;;5.67;100.00
54872;BME280;43914;57.680;11.982;2023-03-20T05:07:22;100041.66;;;5.65;100.00
54872;BME280;43914;57.680;11.982;2023-03-20T05:09:47;100042.10;;;5.63;100.00
54872;BME280;43914;57.680;11.982;2023-03-20T05:12:13;100041.23;;;5.61;100.00
54872;BME280;43914;57.680;11.982;2023-03-20T05:14:39;100044.14;;;5.62;100.00
54872;BME280;43914;57.680;11.982;2023-03-20T05:17:04;100048.95;;;5.64;100.00
54872;BME280;43914;57.680;11.982;2023-03-20T05:19:30;100044.77;;;5.63;100.00
54872;BME280;43914;57.680;11.982;2023-03-20T05:21:55;100041.48;;;5.62;100.00
54872;BME280;43914;57.680;11.982;2023-03-20T05:24:21;100034.23;;;5.61;100.00
54872;BME280;43914;57.680;11.982;2023-03-20T05:26:46;100028.53;;;5.60;100.00
54872;BME280;43914;57.680;11.982;2023-03-20T05:29:13;100029.58;;;5.60;100.00
54872;BME280;43914;57.680;11.982;2023-03-20T05:31:38;100027.56;;;5.61;100.00
54872;BME280;43914;57.680;11.982;2023-03-20T05:34:04;100026.17;;;5.62;100.00
54872;BME280;43914;57.680;11.982;2023-03-20T05:36:30;100025.91;;;5.65;100.00
54872;BME280;43914;57.680;11.982;2023-03-20T05:38:56;100024.99;;;5.67;100.00
54872;BME280;43914;57.680;11.982;2023-03-20T05:41:22;100029.80;;;5.67;100.00
54872;BME280;43914;57.680;11.982;2023-03-20T05:43:47;100028.30;;;5.64;100.00
54872;BME280;43914;57.680;11.982;2023-03-20T05:46:13;100032.73;;;5.66;100.00
54872;BME280;43914;57.680;11.982;2023-03-20T05:48:38;100028.73;;;5.65;100.00
54872;BME280;43914;57.680;11.982;2023-03-20T05:51:05;100028.34;;;5.65;100.00
54872;BME280;43914;57.680;11.982;2023-03-20T05:53:30;100030.38;;;5.65;100.00
54872;BME280;43914;57.680;11.982;2023-03-20T05:55:56;100026.77;;;5.65;100.00
54872;BME280;43914;57.680;11.982;2023-03-20T05:58:21;100027.37;;;5.64;100.00
54872;BME280;43914;57.680;11.982;2023-03-20T06:00:47;100026.17;;;5.62;100.00
54872;BME280;43914;57.680;11.982;2023-03-20T06:03:12;100028.54;;;5.65;100.00
54872;BME280;43914;57.680;11.982;2023-03-20T06:05:38;100028.20;;;5.67;100.00
54872;BME280;43914;57.680;11.982;2023-03-20T06:08:04;100036.30;;;5.67;100.00
54872;BME280;43914;57.680;11.982;2023-03-20T06:10:30;100038.42;;;5.67;100.00
54872;BME280;43914;57.680;11.982;2023-03-20T06:12:57;100041.41;;;5.64;100.00
54872;BME280;43914;57.680;11.982;2023-03-20T06:15:28;100045.17;;;5.62;100.00
54872;BME280;43914;57.680;11.982;2023-03-20T06:17:55;100047.51;;;5.62;100.00
54872;BME280;43914;57.680;11.982;2023-03-20T06:20:21;100044.00;;;5.62;100.00
54872;BME280;43914;57.680;11.982;2023-03-20T06:22:47;100045.33;;;5.62;100.00
54872;BME280;43914;57.680;11.982;2023-03-20T06:25:12;100048.30;;;5.65;100.00
54872;BME280;43914;57.680;11.982;2023-03-20T06:27:38;100048.94;;;5.64;100.00
54872;BME280;43914;57.680;11.982;2023-03-20T06:30:04;100050.43;;;5.63;100.00
54872;BME280;43914;57.680;11.982;2023-03-20T06:32:30;100058.33;;;5.66;100.00
54872;BME280;43914;57.680;11.982;2023-03-20T06:34:56;100059.77;;;5.64;100.00
54872;BME280;43914;57.680;11.982;2023-03-20T06:37:21;100059.30;;;5.62;100.00
54872;BME280;43914;57.680;11.982;2023-03-20T06:39:47;100055.73;;;5.60;100.00
54872;BME280;43914;57.680;11.982;2023-03-20T06:42:13;100053.27;;;5.57;100.00
54872;BME280;43914;57.680;11.982;2023-03-20T06:44:39;100055.56;;;5.57;100.00
54872;BME280;43914;57.680;11.982;2023-03-20T06:47:04;100054.52;;;5.57;100.00
54872;BME280;43914;57.680;11.982;2023-03-20T06:49:30;100052.80;;;5.56;100.00
54872;BME280;43914;57.680;11.982;2023-03-20T06:51:56;100053.00;;;5.56;100.00
54872;BME280;43914;57.680;11.982;2023-03-20T06:54:25;100053.17;;;5.56;100.00
54872;BME280;43914;57.680;11.982;2023-03-20T06:56:51;100044.11;;;5.58;100.00
54872;BME280;43914;57.680;11.982;2023-03-20T06:59:17;100047.37;;;5.57;100.00
54872;BME280;43914;57.680;11.982;2023-03-20T07:01:45;100051.59;;;5.56;100.00
54872;BME280;43914;57.680;11.982;2023-03-20T07:04:10;100051.74;;;5.56;100.00
54872;BME280;43914;57.680;11.982;2023-03-20T07:06:36;100051.60;;;5.59;100.00
54872;BME280;43914;57.680;11.982;2023-03-20T07:09:02;100048.06;;;5.60;100.00
54872;BME280;43914;57.680;11.982;2023-03-20T07:11:28;100052.37;;;5.61;100.00
54872;BME280;43914;57.680;11.982;2023-03-20T07:13:54;100053.67;;;5.61;100.00
54872;BME280;43914;57.680;11.982;2023-03-20T07:16:20;100051.40;;;5.64;100.00
54872;BME280;43914;57.680;11.982;2023-03-20T07:18:46;100048.92;;;5.67;100.00
54872;BME280;43914;57.680;11.982;2023-03-20T07:21:19;100041.42;;;5.69;100.00
54872;BME280;43914;57.680;11.982;2023-03-20T07:23:46;100037.58;;;5.73;100.00
54872;BME280;43914;57.680;11.982;2023-03-20T07:26:12;100033.88;;;5.76;100.00
54872;BME280;43914;57.680;11.982;2023-03-20T07:28:38;100040.32;;;5.79;100.00
54872;BME280;43914;57.680;11.982;2023-03-20T07:31:04;100041.45;;;5.85;100.00
54872;BME280;43914;57.680;11.982;2023-03-20T07:33:29;100043.73;;;5.92;100.00
54872;BME280;43914;57.680;11.982;2023-03-20T07:35:55;100036.73;;;6.30;100.00
54872;BME280;43914;57.680;11.982;2023-03-20T07:38:21;100041.35;;;6.41;100.00
54872;BME280;43914;57.680;11.982;2023-03-20T07:40:47;100043.70;;;6.39;100.00
54872;BME280;43914;57.680;11.982;2023-03-20T07:43:16;100042.19;;;6.37;100.00
54872;BME280;43914;57.680;11.982;2023-03-20T07:45:42;100042.48;;;6.33;100.00
54872;BME280;43914;57.680;11.982;2023-03-20T07:48:07;100043.30;;;6.30;100.00
54872;BME280;43914;57.680;11.982;2023-03-20T07:50:33;100042.90;;;6.30;100.00
54872;BME280;43914;57.680;11.982;2023-03-20T07:52:58;100045.08;;;6.28;100.00
54872;BME280;43914;57.680;11.982;2023-03-20T07:55:24;100041.90;;;6.21;100.00
54872;BME280;43914;57.680;11.982;2023-03-20T07:57:49;100044.63;;;6.24;100.00
54872;BME280;43914;57.680;11.982;2023-03-20T08:00:16;100048.77;;;6.22;100.00
54872;BME280;43914;57.680;11.982;2023-03-20T08:02:42;100048.85;;;6.18;100.00
54872;BME280;43914;57.680;11.982;2023-03-20T08:05:08;100058.16;;;6.18;100.00
54872;BME280;43914;57.680;11.982;2023-03-20T08:07:34;100055.70;;;6.14;100.00
54872;BME280;43914;57.680;11.982;2023-03-20T08:10:00;100060.99;;;6.10;100.00
54872;BME280;43914;57.680;11.982;2023-03-20T08:12:26;100063.13;;;6.07;100.00
54872;BME280;43914;57.680;11.982;2023-03-20T08:14:51;100063.63;;;6.07;100.00
54872;BME280;43914;57.680;11.982;2023-03-20T08:17:17;100069.56;;;6.04;100.00
54872;BME280;43914;57.680;11.982;2023-03-20T08:19:43;100074.10;;;6.02;100.00
54872;BME280;43914;57.680;11.982;2023-03-20T08:22:09;100075.30;;;5.99;100.00
54872;BME280;43914;57.680;11.982;2023-03-20T08:24:37;100078.37;;;5.95;100.00
54872;BME280;43914;57.680;11.982;2023-03-20T08:27:03;100073.87;;;5.93;100.00
54872;BME280;43914;57.680;11.982;2023-03-20T08:29:29;100079.77;;;5.94;100.00
54872;BME280;43914;57.680;11.982;2023-03-20T08:31:55;100082.17;;;5.91;100.00
54872;BME280;43914;57.680;11.982;2023-03-20T08:34:21;100082.08;;;5.91;100.00
54872;BME280;43914;57.680;11.982;2023-03-20T08:36:47;100079.64;;;5.88;100.00
54872;BME280;43914;57.680;11.982;2023-03-20T08:39:12;100082.02;;;5.90;100.00
54872;BME280;43914;57.680;11.982;2023-03-20T08:41:38;100084.21;;;5.91;100.00
54872;BME280;43914;57.680;11.982;2023-03-20T08:44:04;100081.70;;;5.92;100.00
54872;BME280;43914;57.680;11.982;2023-03-20T08:46:30;100081.77;;;5.95;100.00
54872;BME280;43914;57.680;11.982;2023-03-20T08:48:56;100084.30;;;6.00;100.00
54872;BME280;43914;57.680;11.982;2023-03-20T08:51:24;100081.14;;;6.03;100.00
54872;BME280;43914;57.680;11.982;2023-03-20T08:53:50;100079.08;;;6.02;100.00
54872;BME280;43914;57.680;11.982;2023-03-20T08:56:15;100083.86;;;6.03;100.00
54872;BME280;43914;57.680;11.982;2023-03-20T08:58:41;100083.45;;;6.03;100.00
54872;BME280;43914;57.680;11.982;2023-03-20T09:01:07;100084.73;;;5.99;100.00
54872;BME280;43914;57.680;11.982;2023-03-20T09:03:35;100086.42;;;5.95;100.00
54872;BME280;43914;57.680;11.982;2023-03-20T09:06:04;100095.09;;;5.89;100.00
54872;BME280;43914;57.680;11.982;2023-03-20T09:08:31;100089.48;;;5.81;100.00
54872;BME280;43914;57.680;11.982;2023-03-20T09:10:56;100088.10;;;5.81;100.00
54872;BME280;43914;57.680;11.982;2023-03-20T09:13:22;100088.97;;;5.76;100.00
54872;BME280;43914;57.680;11.982;2023-03-20T09:15:49;100089.64;;;5.79;100.00
54872;BME280;43914;57.680;11.982;2023-03-20T09:18:15;100084.91;;;5.80;100.00
54872;BME280;43914;57.680;11.982;2023-03-20T09:20:41;100090.44;;;5.83;100.00
54872;BME280;43914;57.680;11.982;2023-03-20T09:23:07;100090.83;;;5.84;100.00
54872;BME280;43914;57.680;11.982;2023-03-20T09:25:32;100087.02;;;5.86;100.00
54872;BME280;43914;57.680;11.982;2023-03-20T09:27:57;100090.08;;;5.86;100.00
54872;BME280;43914;57.680;11.982;2023-03-20T09:30:23;100090.91;;;5.88;100.00
54872;BME280;43914;57.680;11.982;2023-03-20T09:32:50;100091.75;;;5.90;100.00
54872;BME280;43914;57.680;11.982;2023-03-20T09:35:17;100089.90;;;5.94;100.00
54872;BME280;43914;57.680;11.982;2023-03-20T09:37:42;100087.27;;;5.97;100.00
54872;BME280;43914;57.680;11.982;2023-03-20T09:40:27;100092.79;;;6.00;100.00
54872;BME280;43914;57.680;11.982;2023-03-20T09:54:03;100090.31;;;6.03;100.00
54872;BME280;43914;57.680;11.982;2023-03-20T09:56:31;100086.27;;;6.05;100.00
54872;BME280;43914;57.680;11.982;2023-03-20T09:59:00;100080.84;;;6.09;100.00
54872;BME280;43914;57.680;11.982;2023-03-20T10:01:31;100079.97;;;6.07;100.00
54872;BME280;43914;57.680;11.982;2023-03-20T10:04:06;100083.23;;;6.10;100.00
54872;BME280;43914;57.680;11.982;2023-03-20T10:06:34;100082.64;;;6.09;100.00
54872;BME280;43914;57.680;11.982;2023-03-20T10:09:01;100073.54;;;6.15;100.00
54872;BME280;43914;57.680;11.982;2023-03-20T10:14:23;100068.48;;;6.24;100.00
54872;BME280;43914;57.680;11.982;2023-03-20T10:19:50;100067.40;;;6.42;100.00
54872;BME280;43914;57.680;11.982;2023-03-20T10:22:32;100066.80;;;6.48;100.00
54872;BME280;43914;57.680;11.982;2023-03-20T10:25:06;100066.28;;;6.52;100.00
54872;BME280;43914;57.680;11.982;2023-03-20T10:27:38;100067.70;;;6.55;100.00
54872;BME280;43914;57.680;11.982;2023-03-20T10:41:01;100073.55;;;6.62;100.00
54872;BME280;43914;57.680;11.982;2023-03-20T10:43:34;100077.17;;;6.56;100.00
54872;BME280;43914;57.680;11.982;2023-03-20T10:46:21;100077.89;;;6.53;100.00
54872;BME280;43914;57.680;11.982;2023-03-20T10:51:50;100078.13;;;6.46;100.00
54872;BME280;43914;57.680;11.982;2023-03-20T10:54:30;100073.48;;;6.49;100.00
54872;BME280;43914;57.680;11.982;2023-03-20T10:57:02;100075.42;;;6.54;100.00
54872;BME280;43914;57.680;11.982;2023-03-20T10:59:36;100073.07;;;6.56;100.00
54872;BME280;43914;57.680;11.982;2023-03-20T11:02:11;100075.27;;;6.49;100.00
54872;BME280;43914;57.680;11.982;2023-03-20T11:04:38;100076.42;;;6.41;100.00
54872;BME280;43914;57.680;11.982;2023-03-20T11:09:41;100072.27;;;6.47;100.00
54872;BME280;43914;57.680;11.982;2023-03-20T11:12:14;100067.11;;;6.52;100.00
54872;BME280;43914;57.680;11.982;2023-03-20T11:14:43;100062.95;;;6.58;100.00
54872;BME280;43914;57.680;11.982;2023-03-20T11:17:09;100062.80;;;6.56;100.00
54872;BME280;43914;57.680;11.982;2023-03-20T11:19:40;100062.34;;;6.60;100.00
54872;BME280;43914;57.680;11.982;2023-03-20T11:22:22;100057.42;;;6.60;100.00
54872;BME280;43914;57.680;11.982;2023-03-20T11:24:55;100061.35;;;6.64;100.00
54872;BME280;43914;57.680;11.982;2023-03-20T11:27:25;100060.03;;;6.71;100.00
54872;BME280;43914;57.680;11.982;2023-03-20T11:29:51;100058.48;;;6.81;100.00
54872;BME280;43914;57.680;11.982;2023-03-20T11:34:46;100056.09;;;6.90;100.00
54872;BME280;43914;57.680;11.982;2023-03-20T11:37:22;100055.00;;;6.93;100.00
54872;BME280;43914;57.680;11.982;2023-03-20T11:39:58;100058.81;;;6.92;100.00
54872;BME280;43914;57.680;11.982;2023-03-20T11:42:29;100061.75;;;6.92;100.00
54872;BME280;43914;57.680;11.982;2023-03-20T11:45:00;100065.15;;;6.88;100.00
54872;BME280;43914;57.680;11.982;2023-03-20T11:47:27;100061.09;;;6.87;100.00
54872;BME280;43914;57.680;11.982;2023-03-20T11:49:57;100069.47;;;6.85;100.00
54872;BME280;43914;57.680;11.982;2023-03-20T11:52:26;100076.97;;;6.82;100.00
54872;BME280;43914;57.680;11.982;2023-03-20T11:54:55;100068.21;;;6.79;100.00
54872;BME280;43914;57.680;11.982;2023-03-20T12:00:20;100073.27;;;6.78;100.00
54872;BME280;43914;57.680;11.982;2023-03-20T12:02:47;100076.16;;;6.73;100.00
54872;BME280;43914;57.680;11.982;2023-03-20T12:07:55;100069.14;;;6.63;100.00
54872;BME280;43914;57.680;11.982;2023-03-20T12:10:25;100064.95;;;6.59;100.00
54872;BME280;43914;57.680;11.982;2023-03-20T12:12:55;100068.23;;;6.55;100.00
54872;BME280;43914;57.680;11.982;2023-03-20T12:15:28;100074.01;;;6.49;100.00
54872;BME280;43914;57.680;11.982;2023-03-20T12:18:07;100074.30;;;6.45;100.00
54872;BME280;43914;57.680;11.982;2023-03-20T12:20:40;100073.01;;;6.41;100.00
54872;BME280;43914;57.680;11.982;2023-03-20T12:23:10;100070.30;;;6.38;100.00
54872;BME280;43914;57.680;11.982;2023-03-20T12:26:00;100070.75;;;6.41;100.00
54872;BME280;43914;57.680;11.982;2023-03-20T12:31:29;100069.83;;;6.38;100.00
54872;BME280;43914;57.680;11.982;2023-03-20T12:34:32;100074.08;;;6.38;100.00
54872;BME280;43914;57.680;11.982;2023-03-20T12:36:59;100069.08;;;6.43;100.00
54872;BME280;43914;57.680;11.982;2023-03-20T12:39:37;100062.98;;;6.45;100.00
54872;BME280;43914;57.680;11.982;2023-03-20T12:45:15;100081.08;;;6.52;100.00
54872;BME280;43914;57.680;11.982;2023-03-20T12:50:40;100076.45;;;6.53;100.00
54872;BME280;43914;57.680;11.982;2023-03-20T12:56:28;100064.27;;;6.61;100.00
54872;BME280;43914;57.680;11.982;2023-03-20T12:59:23;100069.46;;;6.68;100.00
54872;BME280;43914;57.680;11.982;2023-03-20T13:02:08;100071.05;;;6.66;100.00
54872;BME280;43914;57.680;11.982;2023-03-20T13:07:19;100053.69;;;6.73;100.00
54872;BME280;43914;57.680;11.982;2023-03-20T13:15:40;100069.89;;;6.86;98.32
54872;BME280;43914;57.680;11.982;2023-03-20T13:20:53;100080.66;;;6.85;96.92
54872;BME280;43914;57.680;11.982;2023-03-20T13:26:43;100089.66;;;6.94;96.76
54872;BME280;43914;57.680;11.982;2023-03-20T13:29:40;100090.38;;;6.90;96.36
54872;BME280;43914;57.680;11.982;2023-03-20T13:37:31;100089.68;;;6.95;96.28
54872;BME280;43914;57.680;11.982;2023-03-20T13:40:13;100090.05;;;6.98;96.10
54872;BME280;43914;57.680;11.982;2023-03-20T13:45:36;100087.80;;;6.91;95.02
54872;BME280;43914;57.680;11.982;2023-03-20T13:48:26;100077.41;;;6.82;95.14
54872;BME280;43914;57.680;11.982;2023-03-20T13:56:51;100090.45;;;6.84;95.62
54872;BME280;43914;57.680;11.982;2023-03-20T14:04:34;100077.54;;;6.64;96.21
54872;BME280;43914;57.680;11.982;2023-03-20T14:07:00;100077.46;;;6.57;96.72
54872;BME280;43914;57.680;11.982;2023-03-20T14:09:36;100078.77;;;6.50;97.32
54872;BME280;43914;57.680;11.982;2023-03-20T14:12:05;100078.09;;;6.42;96.94
54872;BME280;43914;57.680;11.982;2023-03-20T14:14:41;100076.52;;;6.52;97.83
54872;BME280;43914;57.680;11.982;2023-03-20T14:19:36;100068.71;;;7.21;98.02
54872;BME280;43914;57.680;11.982;2023-03-20T14:22:03;100069.20;;;7.65;95.33
54872;BME280;43914;57.680;11.982;2023-03-20T14:24:34;100066.07;;;8.11;94.05
54872;BME280;43914;57.680;11.982;2023-03-20T14:27:01;100059.98;;;8.50;92.22
54872;BME280;43914;57.680;11.982;2023-03-20T14:29:35;100063.83;;;8.77;91.78
54872;BME280;43914;57.680;11.982;2023-03-20T14:37:27;100079.16;;;9.17;84.22
54872;BME280;43914;57.680;11.982;2023-03-20T14:40:00;100071.31;;;9.04;83.75
54872;BME280;43914;57.680;11.982;2023-03-20T14:50:38;100078.82;;;8.58;83.89
54872;BME280;43914;57.680;11.982;2023-03-20T14:53:21;100078.98;;;8.51;84.29
54872;BME280;43914;57.680;11.982;2023-03-20T15:01:24;100082.45;;;8.13;85.89
54872;BME280;43914;57.680;11.982;2023-03-20T15:03:57;100083.51;;;8.07;87.19
54872;BME280;43914;57.680;11.982;2023-03-20T15:06:26;100083.75;;;8.03;87.97
54872;BME280;43914;57.680;11.982;2023-03-20T15:08:59;100086.37;;;8.01;88.29
54872;BME280;43914;57.680;11.982;2023-03-20T15:11:26;100092.17;;;7.91;88.01